Time;durP1;ratioP1;P1;durP2;ratioP2;P2;SDS_P1;SDS_P2;PMS_P1;PMS_P2;Temp;Humidity;BMP_temperature;BMP_pressure;BME280_temperature;BME280_humidity;BME280_pressure;Samples;Min_cycle;Max_cycle;Signal;HPM_P1;HPM_P2
2023/09/03 00:01:42;;;;;;;14.48;9.40;;;;;;;20.78;71.81;95709.81;4982043;28;20324;-75
2023/09/03 00:04:18;;;;;;;14.07;9.40;;;;;;;20.57;72.34;95715.88;4978914;28;20811;-77
2023/09/03 00:06:46;;;;;;;13.57;9.20;;;;;;;20.81;71.34;95721.84;4975993;28;20230;-77
2023/09/03 00:09:36;;;;;;;;;;;;;;;;;;;;;
2023/09/03 00:12:16;;;;;;;14.75;9.20;;;;;;;20.96;71.29;95714.09;4956327;28;20277;-76
2023/09/03 00:14:59;;;;;;;14.60;9.27;;;;;;;20.77;71.82;95718.88;4982871;28;20235;-76
2023/09/03 00:17:34;;;;;;;15.50;9.48;;;;;;;20.64;72.50;95718.38;4982832;28;20289;-76
2023/09/03 00:20:33;;;;;;;14.67;9.73;;;;;;;20.77;71.68;95726.03;4976165;28;20265;-77
2023/09/03 00:23:16;;;;;;;17.05;9.55;;;;;;;20.91;71.32;95727.31;4990757;28;20249;-75
2023/09/03 00:25:42;;;;;;;13.18;9.70;;;;;;;20.90;70.91;95728.34;4976870;28;20246;-75
2023/09/03 00:28:14;;;;;;;14.43;9.73;;;;;;;20.98;70.46;95732.47;4981430;28;20239;-76
2023/09/03 00:31:11;;;;;;;14.77;9.23;;;;;;;21.03;69.98;95730.69;4960318;28;20320;-77
2023/09/03 00:33:49;;;;;;;16.90;9.50;;;;;;;20.94;70.03;95742.81;4947556;28;20236;-76
2023/09/03 00:36:33;;;;;;;14.68;9.10;;;;;;;20.90;69.73;95739.00;4999900;28;20959;-75
2023/09/03 00:39:02;;;;;;;16.75;9.60;;;;;;;20.91;69.15;95732.63;4978454;28;20297;-76
2023/09/03 00:41:46;;;;;;;13.40;9.00;;;;;;;20.89;69.11;95734.75;4996054;28;20238;-75
2023/09/03 00:44:17;;;;;;;13.50;9.15;;;;;;;20.87;69.42;95733.38;4993658;28;20316;-73
2023/09/03 00:46:43;;;;;;;16.08;9.45;;;;;;;20.83;69.43;95731.19;5016302;28;20249;-76
2023/09/03 00:49:50;;;;;;;13.57;9.02;;;;;;;20.83;69.08;95735.69;4969191;28;20774;-76
2023/09/03 00:52:39;;;;;;;15.73;9.37;;;;;;;20.55;70.20;95725.16;4989103;28;20242;-76
2023/09/03 00:55:19;;;;;;;13.63;9.18;;;;;;;20.52;70.30;95726.44;4991727;28;20227;-76
2023/09/03 00:57:48;;;;;;;13.73;9.02;;;;;;;20.50;70.59;95720.56;5006264;28;20238;-77
2023/09/03 01:00:26;;;;;;;13.48;9.32;;;;;;;20.51;70.57;95716.88;4975693;28;20245;-76
2023/09/03 01:03:19;;;;;;;14.48;9.13;;;;;;;20.27;71.28;95715.38;4991771;28;20226;-76
2023/09/03 01:06:18;;;;;;;;;;;;;;;;;;;;;
2023/09/03 01:08:44;;;;;;;15.75;9.50;;;;;;;20.22;71.80;95703.81;5014401;28;22500;-76
2023/09/03 01:11:27;;;;;;;14.77;10.07;;;;;;;20.12;72.22;95707.91;5013399;28;20235;-75
2023/09/03 01:14:17;;;;;;;13.05;8.85;;;;;;;20.19;72.08;95707.75;5010526;28;20265;-77
2023/09/03 01:16:55;;;;;;;13.50;9.43;;;;;;;20.22;72.18;95711.78;4970005;28;20250;-76
2023/09/03 01:19:32;;;;;;;15.18;9.20;;;;;;;20.18;72.26;95709.59;4920490;28;20224;-77
2023/09/03 01:22:30;;;;;;;14.15;9.05;;;;;;;20.20;72.04;95711.25;4973689;28;20284;-76
2023/09/03 01:25:26;;;;;;;11.95;8.70;;;;;;;20.27;71.83;95714.56;4957457;28;20222;-76
2023/09/03 01:28:37;;;;;;;13.15;8.75;;;;;;;20.19;72.09;95718.41;4986685;28;20234;-77
2023/09/03 01:31:08;;;;;;;12.90;8.83;;;;;;;20.15;72.47;95712.78;4970398;28;20685;-76
2023/09/03 01:33:42;;;;;;;12.05;8.85;;;;;;;20.22;72.32;95714.47;4971422;28;20381;-76
2023/09/03 01:36:17;;;;;;;17.77;9.13;;;;;;;20.23;72.42;95705.47;4975708;28;20234;-77
2023/09/03 01:38:46;;;;;;;15.10;8.60;;;;;;;20.14;72.57;95710.34;5007970;28;20322;-77
2023/09/03 01:41:25;;;;;;;11.93;8.70;;;;;;;20.09;72.95;95712.91;4990337;28;20272;-76
2023/09/03 01:43:56;;;;;;;13.67;8.97;;;;;;;20.20;72.40;95704.06;5008754;28;20267;-76
2023/09/03 01:46:56;;;;;;;;;;;;;;;;;;;;;
2023/09/03 01:49:37;;;;;;;13.27;9.00;;;;;;;19.98;73.25;95716.44;5012524;28;20922;-74
2023/09/03 01:52:37;;;;;;;12.13;8.53;;;;;;;19.84;73.89;95707.94;4992424;28;20230;-78
2023/09/03 01:55:19;;;;;;;13.57;8.97;;;;;;;20.00;73.88;95709.84;5015649;28;20234;-77
2023/09/03 01:58:06;;;;;;;12.53;8.43;;;;;;;20.01;73.86;95710.66;4999751;28;20778;-77
2023/09/03 02:00:32;;;;;;;13.37;8.30;;;;;;;20.00;73.88;95720.47;4983373;28;20245;-77
2023/09/03 02:06:27;;;;;;;11.90;8.53;;;;;;;19.94;73.70;95712.66;5000427;28;20765;-74
2023/09/03 02:08:52;;;;;;;13.57;8.87;;;;;;;19.92;73.74;95715.53;4973367;28;20238;-73
2023/09/03 02:11:18;;;;;;;12.80;8.57;;;;;;;20.00;73.37;95709.84;4983089;28;20223;-74
2023/09/03 02:13:43;;;;;;;13.13;8.27;;;;;;;19.81;74.42;95708.41;4955202;28;20242;-74
2023/09/03 02:16:12;;;;;;;13.50;8.80;;;;;;;19.74;74.56;95713.06;4957200;28;20781;-74
2023/09/03 02:18:59;;;;;;;11.57;8.53;;;;;;;19.74;74.61;95706.94;4964196;28;20235;-74
2023/09/03 02:21:29;;;;;;;12.53;8.70;;;;;;;19.67;74.89;95715.06;4954035;28;20731;-74
2023/09/03 02:24:26;;;;;;;11.40;8.37;;;;;;;19.57;75.20;95708.72;4957987;28;20235;-74
2023/09/03 02:26:58;;;;;;;11.30;8.27;;;;;;;19.69;74.59;95704.19;4984283;28;20254;-75
2023/09/03 02:29:27;;;;;;;11.93;8.93;;;;;;;19.59;75.06;95707.44;4964313;28;20308;-75
2023/09/03 02:34:47;;;;;;;11.63;8.63;;;;;;;19.47;75.46;95709.31;4914591;28;20232;-76
2023/09/03 02:37:22;;;;;;;12.53;8.50;;;;;;;19.44;75.44;95704.47;4952560;28;20239;-76
2023/09/03 02:39:51;;;;;;;13.70;8.53;;;;;;;19.31;76.00;95702.88;4952216;28;20646;-76
2023/09/03 02:42:31;;;;;;;12.23;8.30;;;;;;;19.46;75.26;95708.50;4989380;28;20329;-74
2023/09/03 02:45:05;;;;;;;12.23;8.33;;;;;;;19.67;74.10;95703.63;4994122;28;20226;-75
2023/09/03 02:47:31;;;;;;;13.50;8.67;;;;;;;19.55;74.34;95710.81;4990999;28;20245;-74
2023/09/03 02:50:02;;;;;;;11.70;8.53;;;;;;;19.45;75.08;95708.75;4992624;28;20239;-75
2023/09/03 02:52:41;;;;;;;11.57;8.73;;;;;;;19.64;75.03;95712.03;5001125;28;20288;-74
2023/09/03 02:55:07;;;;;;;13.60;9.43;;;;;;;19.60;75.56;95719.69;4996960;28;20245;-74
2023/09/03 02:57:38;;;;;;;15.27;10.03;;;;;;;19.62;75.76;95717.59;5001061;28;20947;-76
2023/09/03 03:00:04;;;;;;;16.73;10.73;;;;;;;19.57;76.44;95720.16;4988572;28;20751;-74
2023/09/03 03:02:30;;;;;;;17.43;10.63;;;;;;;19.59;76.96;95714.59;4982556;28;20291;-73
2023/09/03 03:04:55;;;;;;;14.27;10.07;;;;;;;19.74;76.18;95714.91;4984045;28;20239;-75
2023/09/03 03:07:25;;;;;;;15.30;10.57;;;;;;;19.66;76.43;95713.44;4980043;28;20238;-74
2023/09/03 03:10:10;;;;;;;14.93;10.40;;;;;;;19.65;76.72;95706.53;4984836;28;20234;-75
2023/09/03 03:12:42;;;;;;;17.63;10.50;;;;;;;19.49;78.06;95712.56;4989990;28;20304;-74
2023/09/03 03:15:08;;;;;;;15.60;10.40;;;;;;;19.44;78.13;95705.28;4961297;28;20253;-75
2023/09/03 03:17:45;;;;;;;16.23;11.00;;;;;;;19.38;78.13;95700.13;4983394;28;20246;-75
2023/09/03 03:20:16;;;;;;;14.73;10.37;;;;;;;19.32;78.77;95701.81;4992321;28;20717;-74
2023/09/03 03:23:08;;;;;;;17.10;10.10;;;;;;;19.24;79.28;95694.25;4970381;28;20238;-77
2023/09/03 03:25:53;;;;;;;14.80;10.37;;;;;;;19.32;78.83;95695.72;4987888;28;20237;-76
2023/09/03 03:28:37;;;;;;;14.57;10.40;;;;;;;19.23;79.46;95691.81;4975662;28;21069;-78
2023/09/03 03:31:12;;;;;;;15.13;10.40;;;;;;;19.17;79.52;95698.06;4988712;28;20807;-76
2023/09/03 03:34:12;;;;;;;15.60;10.33;;;;;;;18.88;80.86;95696.34;4979065;28;20320;-76
2023/09/03 03:36:40;;;;;;;14.50;10.73;;;;;;;18.82;81.18;95701.53;4983218;28;20262;-76
2023/09/03 03:39:21;;;;;;;16.77;10.50;;;;;;;18.95;80.78;95708.47;5014174;28;20270;-78
2023/09/03 03:41:53;;;;;;;15.17;10.33;;;;;;;18.80;81.40;95708.13;4987876;28;20764;-75
2023/09/03 03:44:32;;;;;;;15.83;10.13;;;;;;;18.97;80.50;95711.69;4972789;28;20237;-76
2023/09/03 03:46:58;;;;;;;14.30;9.83;;;;;;;19.11;80.07;95706.94;4976719;28;20242;-77
2023/09/03 03:49:29;;;;;;;14.23;9.57;;;;;;;19.06;79.88;95706.84;4982612;28;20284;-76
2023/09/03 03:52:45;;;;;;;;;;;;;;;;;;;;;
2023/09/03 03:55:11;;;;;;;15.47;9.23;;;;;;;19.17;79.60;95703.38;4952443;28;20234;-77
2023/09/03 03:57:45;;;;;;;15.37;10.20;;;;;;;18.87;81.35;95700.06;4985434;28;20234;-76
2023/09/03 04:00:35;;;;;;;14.40;10.00;;;;;;;18.82;81.71;95709.50;4993187;28;20227;-76
2023/09/03 04:03:03;;;;;;;14.30;10.50;;;;;;;18.86;81.51;95703.75;4938011;28;20682;-76
2023/09/03 04:05:41;;;;;;;16.73;10.70;;;;;;;18.88;82.25;95707.78;4981404;28;20237;-76
2023/09/03 04:08:21;;;;;;;14.83;10.03;;;;;;;18.83;82.34;95705.81;4965454;28;20261;-75
2023/09/03 04:11:11;;;;;;;14.37;10.40;;;;;;;18.96;83.33;95711.94;4980028;28;20246;-77
2023/09/03 04:13:37;;;;;;;16.27;10.27;;;;;;;18.65;82.85;95716.53;4956351;28;20243;-76
2023/09/03 04:16:16;;;;;;;15.37;10.23;;;;;;;18.50;84.17;95712.72;4985332;28;20725;-76
2023/09/03 04:18:54;;;;;;;13.80;9.77;;;;;;;18.63;84.51;95707.19;4935223;28;20955;-77
2023/09/03 04:21:51;;;;;;;17.17;10.23;;;;;;;18.70;83.20;95714.00;4959535;28;20733;-76
2023/09/03 04:24:23;;;;;;;14.67;10.20;;;;;;;18.87;81.54;95713.34;4985471;28;20235;-75
2023/09/03 04:26:59;;;;;;;15.87;10.10;;;;;;;18.90;81.29;95713.66;4979198;28;20331;-77
2023/09/03 04:29:38;;;;;;;16.67;10.77;;;;;;;18.92;82.22;95713.41;4953141;28;20235;-77
2023/09/03 04:32:07;;;;;;;14.63;10.17;;;;;;;18.91;82.36;95712.63;4975336;28;20279;-76
2023/09/03 04:34:32;;;;;;;16.60;10.23;;;;;;;18.96;82.51;95715.41;4989205;28;20381;-76
2023/09/03 04:37:01;;;;;;;16.97;10.10;;;;;;;18.94;82.06;95711.38;4977814;28;20326;-76
2023/09/03 04:39:54;;;;;;;13.93;10.17;;;;;;;18.82;83.94;95709.50;4984319;28;20241;-76
2023/09/03 04:42:22;;;;;;;17.70;10.20;;;;;;;18.90;82.52;95703.03;4960913;28;20271;-76
2023/09/03 04:45:02;;;;;;;16.20;10.27;;;;;;;19.09;80.46;95707.19;4966519;28;20232;-76
2023/09/03 04:47:41;;;;;;;13.83;10.17;;;;;;;19.19;79.66;95709.25;4953413;28;20624;-76
2023/09/03 04:50:15;;;;;;;13.90;10.10;;;;;;;19.32;79.34;95706.34;4977548;28;20241;-77
2023/09/03 04:53:15;;;;;;;15.13;9.83;;;;;;;19.28;79.52;95699.88;4992915;28;20296;-76
2023/09/03 04:55:58;;;;;;;14.10;10.20;;;;;;;19.11;79.81;95696.31;4975424;28;20248;-76
2023/09/03 04:58:24;;;;;;;15.63;10.43;;;;;;;19.35;79.36;95696.06;4977470;28;20653;-76
2023/09/03 05:01:00;;;;;;;;;;;;;;;;;;;;;
2023/09/03 05:03:38;;;;;;;16.20;10.43;;;;;;;19.38;79.25;95689.50;4982633;28;21667;-76
2023/09/03 05:06:28;;;;;;;16.73;10.63;;;;;;;19.37;79.51;95688.69;4946862;28;20281;-75
2023/09/03 05:08:53;;;;;;;16.47;10.77;;;;;;;19.57;78.88;95690.94;5001569;28;20334;-74
2023/09/03 05:11:30;;;;;;;19.70;10.87;;;;;;;19.83;77.86;95681.59;4985239;28;20239;-74
2023/09/03 05:13:56;;;;;;;15.47;10.60;;;;;;;19.90;76.99;95674.28;4992561;28;20235;-74
2023/09/03 05:16:31;;;;;;;14.40;10.43;;;;;;;19.79;77.21;95673.31;4981731;28;20231;-75
2023/09/03 05:19:04;;;;;;;16.33;10.67;;;;;;;19.75;77.80;95680.13;4997413;28;20248;-77
2023/09/03 05:21:54;;;;;;;15.33;10.07;;;;;;;19.69;76.85;95685.59;4994836;28;20234;-78
2023/09/03 05:24:22;;;;;;;12.83;9.73;;;;;;;19.76;76.80;95673.78;4949900;28;20235;-77
2023/09/03 05:26:53;;;;;;;16.30;10.10;;;;;;;19.85;76.03;95674.19;4990531;28;20746;-76
2023/09/03 05:29:22;;;;;;;16.37;10.10;;;;;;;19.87;75.84;95688.84;4969361;28;20716;-75
2023/09/03 05:31:52;;;;;;;16.87;10.40;;;;;;;19.94;75.88;95683.41;4980190;28;20235;-76
2023/09/03 05:34:31;;;;;;;15.07;10.07;;;;;;;19.93;75.47;95682.59;4994370;28;20234;-75
2023/09/03 05:37:01;;;;;;;14.03;10.10;;;;;;;19.84;75.71;95681.38;4972195;28;20238;-76
2023/09/03 05:39:29;;;;;;;14.87;10.30;;;;;;;20.05;75.14;95691.31;4985048;28;20274;-77
2023/09/03 05:41:55;;;;;;;16.03;10.43;;;;;;;19.98;75.90;95682.69;4980352;28;20239;-75
2023/09/03 05:44:30;;;;;;;14.13;10.33;;;;;;;19.87;76.09;95682.75;5008394;28;20287;-76
2023/09/03 05:46:55;;;;;;;16.23;10.37;;;;;;;19.99;75.85;95678.97;4995366;28;20250;-76
2023/09/03 05:49:21;;;;;;;14.00;10.53;;;;;;;20.16;74.60;95685.13;4995658;28;20266;-74
2023/09/03 05:51:47;;;;;;;17.50;10.77;;;;;;;20.26;73.87;95686.38;4989513;28;20285;-76
2023/09/03 05:54:41;;;;;;;16.97;10.87;;;;;;;20.28;73.49;95698.38;4985878;28;20222;-76
2023/09/03 05:57:32;;;;;;;17.33;11.00;;;;;;;20.29;74.37;95699.19;4984280;28;20234;-75
2023/09/03 05:59:58;;;;;;;15.90;10.60;;;;;;;20.35;73.85;95699.03;4992277;28;20656;-75
2023/09/03 06:02:29;;;;;;;16.97;10.67;;;;;;;20.46;73.45;95700.81;4993882;28;20372;-76
2023/09/03 06:05:02;;;;;;;15.60;10.40;;;;;;;20.44;74.90;95702.09;4990413;28;20235;-75
2023/09/03 06:07:27;;;;;;;14.17;10.13;;;;;;;20.56;72.53;95700.19;5030880;28;20222;-75
2023/09/03 06:09:55;;;;;;;18.13;10.00;;;;;;;20.58;71.96;95695.41;4996824;28;20730;-76
2023/09/03 06:12:26;;;;;;;16.80;10.33;;;;;;;20.65;71.81;95701.38;4976038;28;20254;-75
2023/09/03 06:14:54;;;;;;;14.57;10.70;;;;;;;20.66;71.88;95703.78;4958852;28;20243;-75
2023/09/03 06:17:53;;;;;;;15.83;10.07;;;;;;;20.50;73.19;95707.25;4995275;28;20732;-76
2023/09/03 06:20:37;;;;;;;18.20;11.10;;;;;;;20.53;72.35;95693.47;5010128;28;20238;-77
2023/09/03 06:25:50;;;;;;;16.63;10.10;;;;;;;20.65;72.66;95698.72;5002467;28;20239;-76
2023/09/03 06:28:18;;;;;;;13.93;10.60;;;;;;;20.79;71.30;95707.97;4990471;28;20223;-76
2023/09/03 06:30:52;;;;;;;14.77;10.30;;;;;;;20.79;70.99;95713.28;4981143;28;20242;-78
2023/09/03 06:33:20;;;;;;;17.73;10.70;;;;;;;20.82;71.18;95710.16;4993504;28;20809;-76
2023/09/03 06:35:46;;;;;;;14.70;10.37;;;;;;;20.96;70.57;95708.75;5002536;28;20233;-77
2023/09/03 06:38:11;;;;;;;15.10;10.23;;;;;;;20.86;70.37;95724.56;5019248;28;20231;-77
2023/09/03 06:40:37;;;;;;;14.63;10.23;;;;;;;20.94;70.93;95713.53;5000894;28;20234;-74
2023/09/03 06:43:13;;;;;;;;;;;;;;;;;;;;;
2023/09/03 06:45:39;;;;;;;14.33;9.97;;;;;;;21.15;69.86;95715.44;5024024;28;20234;-75
2023/09/03 06:48:11;;;;;;;14.53;9.77;;;;;;;21.18;69.22;95712.31;4998433;28;20295;-75
2023/09/03 06:50:40;;;;;;;16.52;9.45;;;;;;;21.27;68.78;95713.50;5003155;28;20237;-76
2023/09/03 06:53:06;;;;;;;15.00;9.80;;;;;;;21.35;68.52;95718.38;4957844;28;20233;-75
2023/09/03 06:55:42;;;;;;;14.83;9.67;;;;;;;21.40;68.07;95717.63;5006741;28;20249;-76
2023/09/03 06:58:11;;;;;;;12.95;10.10;;;;;;;21.41;68.86;95722.72;5010301;28;20221;-77
2023/09/03 07:00:40;;;;;;;14.60;9.75;;;;;;;21.48;68.41;95717.22;4992045;28;20241;-77
2023/09/03 07:03:08;;;;;;;14.10;9.40;;;;;;;21.58;67.60;95713.88;5015557;28;20222;-77
2023/09/03 07:05:37;;;;;;;14.95;9.00;;;;;;;21.70;66.80;95710.03;5004009;28;21071;-76
2023/09/03 07:08:05;;;;;;;14.10;9.80;;;;;;;21.69;66.57;95712.91;5022733;28;20807;-76
2023/09/03 07:10:31;;;;;;;14.75;9.70;;;;;;;21.73;66.97;95714.88;4971359;28;20267;-75
2023/09/03 07:12:59;;;;;;;17.55;9.52;;;;;;;21.80;67.01;95715.47;4980734;28;20265;-77
2023/09/03 07:15:30;;;;;;;14.40;9.07;;;;;;;21.90;66.51;95715.59;4978558;28;20255;-75
2023/09/03 07:17:56;;;;;;;13.40;9.43;;;;;;;21.95;66.09;95714.84;4969220;28;20283;-77
2023/09/03 07:20:27;;;;;;;14.88;9.35;;;;;;;21.97;66.21;95712.75;4978027;28;20235;-78
2023/09/03 07:23:01;;;;;;;15.83;9.57;;;;;;;22.05;65.82;95713.09;4985822;28;20293;-76
2023/09/03 07:25:27;;;;;;;16.23;10.20;;;;;;;22.03;65.71;95706.41;4962363;28;20234;-76
2023/09/03 07:27:58;;;;;;;12.90;9.43;;;;;;;22.16;65.02;95707.88;4973030;28;20699;-75
2023/09/03 07:30:23;;;;;;;12.55;9.20;;;;;;;22.29;64.38;95702.91;4972389;28;20613;-76
2023/09/03 07:32:54;;;;;;;14.90;9.25;;;;;;;22.42;65.14;95713.19;4965957;28;20241;-78
2023/09/03 07:35:49;;;;;;;13.85;8.88;;;;;;;22.42;64.12;95712.38;4979937;28;20316;-77
2023/09/03 07:38:14;;;;;;;14.55;9.40;;;;;;;22.33;63.90;95709.34;4984708;28;20243;-76
2023/09/03 07:40:43;;;;;;;15.40;9.02;;;;;;;22.42;64.21;95712.38;4992526;28;20831;-76
2023/09/03 07:43:51;;;;;;;12.65;9.23;;;;;;;22.59;63.47;95708.50;5018542;28;20288;-77
2023/09/03 07:46:28;;;;;;;13.45;9.25;;;;;;;22.77;63.28;95716.16;4968581;28;20235;-77
2023/09/03 07:48:54;;;;;;;16.52;9.88;;;;;;;22.89;63.20;95717.84;4988335;28;20233;-77
2023/09/03 07:51:35;;;;;;;13.35;9.52;;;;;;;22.98;62.29;95716.28;5006584;28;20234;-77
2023/09/03 07:54:00;;;;;;;12.93;8.95;;;;;;;23.11;62.10;95721.19;5005679;28;20326;-77
2023/09/03 07:56:30;;;;;;;13.75;9.35;;;;;;;23.26;61.82;95705.28;5008940;28;20234;-77
2023/09/03 07:59:03;;;;;;;13.40;9.45;;;;;;;23.23;62.05;95709.25;4996359;28;20246;-76
2023/09/03 08:02:02;;;;;;;13.30;8.77;;;;;;;23.31;61.40;95716.75;5008222;28;20260;-77
2023/09/03 08:04:28;;;;;;;15.63;8.85;;;;;;;23.39;60.80;95716.31;5002635;28;20225;-76
2023/09/03 08:06:57;;;;;;;14.75;8.82;;;;;;;23.49;60.47;95720.91;5004627;28;20372;-76
2023/09/03 08:09:24;;;;;;;15.45;9.05;;;;;;;23.56;60.70;95702.75;5011491;28;20243;-76
2023/09/03 08:11:51;;;;;;;11.50;8.25;;;;;;;23.62;59.30;95707.06;5003166;28;20230;-76
2023/09/03 08:14:45;;;;;;;13.88;8.98;;;;;;;23.72;58.86;95707.09;4995290;28;20256;-77
2023/09/03 08:17:17;;;;;;;12.30;7.97;;;;;;;23.75;58.26;95706.56;4998804;28;20233;-76
2023/09/03 08:20:06;;;;;;;11.57;8.60;;;;;;;23.78;57.93;95705.25;4991571;28;20230;-77
2023/09/03 08:22:32;;;;;;;10.77;7.68;;;;;;;23.84;56.58;95713.00;5014863;28;20325;-74
2023/09/03 08:24:57;;;;;;;10.52;7.43;;;;;;;23.95;55.88;95706.63;4988691;28;20331;-76
2023/09/03 08:27:25;;;;;;;12.30;7.53;;;;;;;23.97;54.92;95704.50;4985826;28;20223;-75
2023/09/03 08:29:51;;;;;;;9.82;7.35;;;;;;;24.00;53.56;95709.31;4999420;28;20251;-75
2023/09/03 08:32:16;;;;;;;10.13;7.20;;;;;;;24.17;53.74;95700.31;5012787;28;20316;-76
2023/09/03 08:34:42;;;;;;;9.98;7.30;;;;;;;24.40;52.42;95699.78;5001299;28;20235;-76
2023/09/03 08:37:07;;;;;;;11.93;7.18;;;;;;;24.49;53.15;95690.97;4980032;28;20239;-76
2023/09/03 08:39:33;;;;;;;9.95;7.28;;;;;;;24.52;52.43;95695.78;5002050;28;20285;-76
2023/09/03 08:41:58;;;;;;;11.60;7.40;;;;;;;24.65;52.45;95699.78;5000334;28;20241;-76
2023/09/03 08:44:51;;;;;;;12.70;7.45;;;;;;;24.82;52.20;95683.47;5013232;28;20237;-76
2023/09/03 08:47:17;;;;;;;9.57;6.72;;;;;;;24.84;49.85;95682.13;4995002;28;20227;-76
2023/09/03 08:49:43;;;;;;;11.20;6.82;;;;;;;24.94;49.36;95675.94;4994172;28;20250;-76
2023/09/03 08:52:09;;;;;;;11.02;7.18;;;;;;;25.01;50.32;95674.59;4975946;28;20235;-76
2023/09/03 08:54:40;;;;;;;9.82;7.10;;;;;;;25.10;50.43;95664.94;4988894;28;20231;-77
2023/09/03 08:57:09;;;;;;;12.27;7.20;;;;;;;25.24;49.38;95671.31;5003917;28;20334;-77
2023/09/03 08:59:35;;;;;;;10.23;7.05;;;;;;;25.29;48.84;95667.84;4981015;28;20276;-76
2023/09/03 09:02:06;;;;;;;9.95;6.63;;;;;;;25.46;47.24;95667.53;4957046;28;20240;-76
2023/09/03 09:04:40;;;;;;;8.80;6.90;;;;;;;25.58;47.81;95654.63;4986702;28;20261;-76
2023/09/03 09:07:39;;;;;;;10.63;6.72;;;;;;;25.64;48.25;95650.84;4969571;28;20799;-78
2023/09/03 09:10:37;;;;;;;11.00;6.72;;;;;;;25.78;46.04;95647.28;4952023;28;20299;-77
2023/09/03 09:13:25;;;;;;;9.95;6.47;;;;;;;25.76;44.51;95648.63;4949277;28;20614;-75
2023/09/03 09:15:59;;;;;;;11.60;7.00;;;;;;;25.83;45.44;95646.44;4940810;28;20288;-75
2023/09/03 09:18:27;;;;;;;11.05;6.60;;;;;;;25.94;44.12;95647.97;4924439;28;20242;-77
2023/09/03 09:20:59;;;;;;;9.57;6.32;;;;;;;26.07;43.86;95642.00;4917991;28;20244;-75
2023/09/03 09:23:29;;;;;;;11.52;5.95;;;;;;;26.25;42.09;95644.03;4946823;28;20237;-76
2023/09/03 09:26:02;;;;;;;8.80;6.13;;;;;;;26.37;42.15;95647.16;4925019;28;21086;-75
2023/09/03 09:28:30;;;;;;;7.85;6.10;;;;;;;26.24;42.07;95639.75;4904723;28;20243;-77
2023/09/03 09:30:56;;;;;;;7.35;5.82;;;;;;;26.22;42.28;95633.06;4915274;28;20323;-75
2023/09/03 09:33:27;;;;;;;9.07;5.88;;;;;;;26.47;41.86;95639.03;4917577;28;20291;-77
2023/09/03 09:36:12;;;;;;;7.60;6.10;;;;;;;26.58;42.55;95626.34;4921486;28;20249;-77
2023/09/03 09:38:39;;;;;;;7.82;6.45;;;;;;;26.67;42.80;95636.19;4943231;28;20229;-77
2023/09/03 09:41:20;;;;;;;7.80;6.30;;;;;;;26.71;41.63;95621.09;4942086;28;20946;-76
2023/09/03 09:43:52;;;;;;;8.38;6.00;;;;;;;26.78;41.77;95625.34;4936357;28;20418;-76
2023/09/03 09:49:29;;;;;;;8.73;6.10;;;;;;;26.96;39.55;95625.44;4953499;28;20756;-76
2023/09/03 09:51:55;;;;;;;8.35;5.82;;;;;;;26.92;39.54;95624.41;4986059;28;20677;-77
2023/09/03 09:55:01;;;;;;;8.07;6.00;;;;;;;26.95;40.30;95614.97;4990212;28;20430;-76
2023/09/03 09:57:31;;;;;;;9.07;6.05;;;;;;;27.09;38.84;95605.13;4958957;28;20241;-77
2023/09/03 10:00:00;;;;;;;7.35;5.70;;;;;;;27.23;37.95;95595.28;5000207;28;20283;-80
2023/09/03 10:02:25;;;;;;;7.63;5.80;;;;;;;27.25;36.10;95603.91;5008239;28;20317;-76
2023/09/03 10:05:58;;;;;;;7.68;5.47;;;;;;;27.17;37.86;95591.06;5012744;28;20245;-76
2023/09/03 10:08:24;;;;;;;11.73;6.30;;;;;;;27.24;37.62;95588.84;5005381;28;20252;-77
2023/09/03 10:10:50;;;;;;;7.93;5.85;;;;;;;27.50;37.34;95584.75;5000035;28;20713;-77
2023/09/03 10:13:15;;;;;;;8.20;5.72;;;;;;;27.51;37.05;95572.13;4974123;28;20235;-76
2023/09/03 10:15:42;;;;;;;8.48;5.70;;;;;;;27.37;37.95;95566.59;4977776;28;20227;-77
2023/09/03 10:18:10;;;;;;;9.02;5.78;;;;;;;27.45;38.94;95567.88;4993525;28;20727;-76
2023/09/03 10:20:37;;;;;;;7.95;6.20;;;;;;;27.65;39.26;95573.81;4966262;28;20246;-77
2023/09/03 10:23:04;;;;;;;8.60;5.97;;;;;;;27.88;37.14;95561.34;4973074;28;20317;-77
2023/09/03 10:26:34;;;;;;;;;;;;;;;;;;;;;
2023/09/03 10:28:52;;;;;;;8.52;5.80;;;;;;;27.88;38.16;95561.34;4978479;28;20234;-78
2023/09/03 10:31:21;;;;;;;8.65;6.35;;;;;;;28.01;37.81;95555.28;4989371;28;20226;-77
2023/09/03 10:34:14;;;;;;;9.65;6.00;;;;;;;28.06;38.03;95557.09;4988024;28;20798;-78
2023/09/03 10:37:10;;;;;;;8.27;5.93;;;;;;;28.24;37.82;95554.34;4970354;28;20238;-78
2023/09/03 10:39:48;;;;;;;9.93;7.13;;;;;;;28.37;37.19;95555.50;4998783;28;20235;-79
2023/09/03 10:42:23;;;;;;;9.30;6.03;;;;;;;28.44;36.63;95548.63;5004604;28;20727;-77
2023/09/03 10:45:18;;;;;;;11.90;6.18;;;;;;;28.49;36.46;95547.72;5010295;28;20239;-78
2023/09/03 10:48:05;;;;;;;8.68;6.03;;;;;;;28.61;35.83;95543.47;4986265;28;20234;-78
2023/09/03 10:50:50;;;;;;;6.47;5.47;;;;;;;28.31;37.10;95533.22;5026794;28;20226;-78
2023/09/03 10:53:44;;;;;;;7.70;6.00;;;;;;;28.40;36.67;95525.25;4963593;28;20251;-78
2023/09/03 10:56:19;;;;;;;10.88;6.45;;;;;;;28.54;36.02;95524.19;4977265;28;20250;-80
2023/09/03 10:58:53;;;;;;;8.48;5.93;;;;;;;28.45;35.68;95525.97;4994772;28;20231;-78
2023/09/03 11:01:35;;;;;;;6.97;5.97;;;;;;;28.00;36.65;95518.66;4998935;28;20244;-77
2023/09/03 11:04:17;;;;;;;7.07;5.97;;;;;;;27.67;37.05;95517.81;4936586;28;20319;-77
2023/09/03 11:07:14;;;;;;;8.27;5.82;;;;;;;27.74;38.12;95507.47;4940077;28;20286;-77
2023/09/03 11:09:45;;;;;;;7.57;6.07;;;;;;;28.24;37.40;95502.38;4942165;28;20224;-78
2023/09/03 11:12:19;;;;;;;8.20;6.10;;;;;;;28.36;36.07;95500.00;4903527;28;20267;-77
2023/09/03 11:14:45;;;;;;;9.65;5.97;;;;;;;28.62;35.71;95498.47;4938506;28;20268;-78
2023/09/03 11:17:13;;;;;;;10.20;5.90;;;;;;;28.76;36.46;95495.78;4935749;28;20243;-76
2023/09/03 11:20:02;;;;;;;7.65;6.00;;;;;;;28.35;35.72;95495.72;4920615;28;20427;-76
2023/09/03 11:22:32;;;;;;;9.15;5.88;;;;;;;27.98;36.55;95496.59;4892957;28;20241;-77
2023/09/03 11:25:40;;;;;;;7.13;5.72;;;;;;;28.16;36.18;95489.63;4938318;28;20225;-77
2023/09/03 11:28:21;;;;;;;9.77;5.97;;;;;;;28.37;36.68;95482.75;4965485;28;20251;-78
2023/09/03 11:30:46;;;;;;;7.25;5.65;;;;;;;28.26;37.51;95476.75;5001338;28;20329;-78
2023/09/03 11:33:25;;;;;;;11.48;6.10;;;;;;;28.45;37.46;95472.09;4992706;28;20231;-78
2023/09/03 11:35:51;;;;;;;10.40;5.90;;;;;;;28.77;35.27;95471.25;4991253;28;20238;-78
2023/09/03 11:38:16;;;;;;;6.70;5.53;;;;;;;28.86;36.12;95471.31;4986055;28;20266;-77
2023/09/03 11:40:55;;;;;;;;;;;;;;;;;;;;;
2023/09/03 11:43:23;;;;;;;10.02;5.88;;;;;;;28.28;36.99;95471.88;4972311;28;20222;-77
2023/09/03 11:45:49;;;;;;;7.82;5.90;;;;;;;27.99;37.02;95469.41;4997060;28;20310;-75
2023/09/03 11:48:14;;;;;;;10.02;6.70;;;;;;;27.79;37.16;95467.03;4987933;28;20246;-76
2023/09/03 11:50:42;;;;;;;9.80;6.00;;;;;;;28.12;37.47;95459.78;4986773;28;20639;-77
2023/09/03 11:53:09;;;;;;;7.57;6.25;;;;;;;28.42;37.61;95466.50;4978560;28;20230;-77
2023/09/03 11:55:40;;;;;;;8.73;6.15;;;;;;;28.62;36.56;95460.75;4988903;28;20321;-76
2023/09/03 11:58:07;;;;;;;9.60;6.20;;;;;;;28.79;36.69;95460.94;5000859;28;20322;-77
2023/09/03 12:00:33;;;;;;;12.70;6.30;;;;;;;28.88;36.27;95447.56;5015190;28;20240;-76
2023/09/03 12:02:59;;;;;;;9.50;6.65;;;;;;;28.89;36.67;95446.47;4980272;28;20626;-75
2023/09/03 12:05:24;;;;;;;8.55;6.72;;;;;;;28.71;35.51;95442.00;4976821;28;20231;-76
2023/09/03 12:07:50;;;;;;;10.57;6.50;;;;;;;28.75;35.09;95438.41;4981754;28;20230;-76
2023/09/03 12:10:19;;;;;;;9.23;6.40;;;;;;;28.92;36.29;95433.19;5011088;28;20239;-76
2023/09/03 12:12:45;;;;;;;7.78;6.30;;;;;;;29.08;34.70;95425.56;4978590;28;20230;-77
2023/09/03 12:15:18;;;;;;;12.02;6.60;;;;;;;29.17;34.50;95429.94;4991213;28;20231;-76
2023/09/03 12:17:44;;;;;;;9.20;6.45;;;;;;;29.18;33.85;95431.56;4954040;28;20237;-76
2023/09/03 12:20:39;;;;;;;8.68;6.57;;;;;;;29.30;35.09;95423.72;4994833;28;20259;-76
2023/09/03 12:23:14;;;;;;;9.70;6.57;;;;;;;29.37;33.21;95415.22;4995948;28;20251;-77
2023/09/03 12:25:40;;;;;;;9.18;6.30;;;;;;;29.38;34.94;95416.03;4988976;28;20300;-78